Castro Valley, California
Current Conditions -  °F | °C
As of 7:54 PM on Sunday 23 Nov 2014 (Local Time) from KHWD Reporting Station
Clear Clear  
Wind Chill: 55°   Ceiling: Unl
Heat Index: 55°   Visibility: 10mi
Dew Point: 42°   Wind: 8mph
Humidity: 62%   Direction: 50°NE
Pressure: 30.3"   Gusts: NA
Location:  37.69°N, 122.08°W
Report Text: KHWD 240354Z 05007KT 10SM CLR 13/06 A3030 RMK AO2 SLP269 T01280056
Loading
Personal Weather Stations






























Interactive Weather Map New forecast layout! Learn more

10-Day Weather Forecast

Advertisements
Track Severe Weather on mobile